sensor_id;sensor_type;location;lat;lon;timestamp;P1;durP1;ratioP1;P2;durP2;ratioP2
39502;SDS011;26970;49.900;10.774;2024-03-02T00:00:05;33.50;;;16.40;;
39502;SDS011;26970;49.900;10.774;2024-03-02T00:02:43;32.90;;;16.13;;
39502;SDS011;26970;49.900;10.774;2024-03-02T00:05:17;34.35;;;17.02;;
39502;SDS011;26970;49.900;10.774;2024-03-02T00:07:45;31.13;;;15.32;;
39502;SDS011;26970;49.900;10.774;2024-03-02T00:10:19;33.47;;;15.90;;
39502;SDS011;26970;49.900;10.774;2024-03-02T00:12:48;37.58;;;16.52;;
39502;SDS011;26970;49.900;10.774;2024-03-02T00:15:59;33.20;;;16.08;;
39502;SDS011;26970;49.900;10.774;2024-03-02T00:18:08;36.05;;;17.33;;
39502;SDS011;26970;49.900;10.774;2024-03-02T00:20:36;29.90;;;15.50;;
39502;SDS011;26970;49.900;10.774;2024-03-02T00:23:06;38.08;;;16.60;;
39502;SDS011;26970;49.900;10.774;2024-03-02T00:25:41;33.80;;;16.38;;
39502;SDS011;26970;49.900;10.774;2024-03-02T00:28:22;27.85;;;15.05;;
39502;SDS011;26970;49.900;10.774;2024-03-02T00:30:51;32.58;;;16.25;;
39502;SDS011;26970;49.900;10.774;2024-03-02T00:33:20;35.17;;;16.60;;
39502;SDS011;26970;49.900;10.774;2024-03-02T00:35:46;37.47;;;16.58;;
39502;SDS011;26970;49.900;10.774;2024-03-02T00:38:13;35.22;;;16.65;;
39502;SDS011;26970;49.900;10.774;2024-03-02T00:40:40;35.85;;;16.60;;
39502;SDS011;26970;49.900;10.774;2024-03-02T00:43:08;32.25;;;16.80;;
39502;SDS011;26970;49.900;10.774;2024-03-02T00:46:02;40.33;;;16.50;;
39502;SDS011;26970;49.900;10.774;2024-03-02T00:48:28;35.10;;;16.23;;
39502;SDS011;26970;49.900;10.774;2024-03-02T00:50:56;37.80;;;16.27;;
39502;SDS011;26970;49.900;10.774;2024-03-02T00:53:23;35.78;;;16.52;;
39502;SDS011;26970;49.900;10.774;2024-03-02T00:55:51;36.80;;;15.93;;
39502;SDS011;26970;49.900;10.774;2024-03-02T00:58:17;36.33;;;16.50;;
39502;SDS011;26970;49.900;10.774;2024-03-02T01:00:42;33.90;;;16.90;;
39502;SDS011;26970;49.900;10.774;2024-03-02T01:03:08;38.55;;;17.38;;
39502;SDS011;26970;49.900;10.774;2024-03-02T01:05:35;34.60;;;17.15;;
39502;SDS011;26970;49.900;10.774;2024-03-02T01:08:01;35.05;;;16.67;;
39502;SDS011;26970;49.900;10.774;2024-03-02T01:10:27;35.55;;;17.70;;
39502;SDS011;26970;49.900;10.774;2024-03-02T01:12:52;31.88;;;17.20;;
39502;SDS011;26970;49.900;10.774;2024-03-02T01:15:18;35.60;;;16.10;;
39502;SDS011;26970;49.900;10.774;2024-03-02T01:17:44;37.08;;;17.50;;
39502;SDS011;26970;49.900;10.774;2024-03-02T01:20:10;39.78;;;18.20;;
39502;SDS011;26970;49.900;10.774;2024-03-02T01:22:36;39.95;;;17.30;;
39502;SDS011;26970;49.900;10.774;2024-03-02T01:25:02;41.28;;;18.92;;
39502;SDS011;26970;49.900;10.774;2024-03-02T01:27:28;40.33;;;18.10;;
39502;SDS011;26970;49.900;10.774;2024-03-02T01:29:53;39.55;;;17.23;;
39502;SDS011;26970;49.900;10.774;2024-03-02T01:32:19;36.17;;;17.40;;
39502;SDS011;26970;49.900;10.774;2024-03-02T01:34:45;41.25;;;17.88;;
39502;SDS011;26970;49.900;10.774;2024-03-02T01:37:11;36.05;;;18.00;;
39502;SDS011;26970;49.900;10.774;2024-03-02T01:39:36;33.58;;;16.38;;
39502;SDS011;26970;49.900;10.774;2024-03-02T01:42:02;37.10;;;17.88;;
39502;SDS011;26970;49.900;10.774;2024-03-02T01:44:29;35.42;;;17.70;;
39502;SDS011;26970;49.900;10.774;2024-03-02T01:46:54;37.63;;;17.20;;
39502;SDS011;26970;49.900;10.774;2024-03-02T01:49:20;37.22;;;17.80;;
39502;SDS011;26970;49.900;10.774;2024-03-02T01:51:45;36.65;;;17.60;;
39502;SDS011;26970;49.900;10.774;2024-03-02T01:54:11;37.22;;;17.35;;
39502;SDS011;26970;49.900;10.774;2024-03-02T01:56:36;29.67;;;16.23;;
39502;SDS011;26970;49.900;10.774;2024-03-02T01:59:02;38.13;;;18.77;;
39502;SDS011;26970;49.900;10.774;2024-03-02T02:01:28;36.95;;;17.42;;
39502;SDS011;26970;49.900;10.774;2024-03-02T02:03:54;41.17;;;17.98;;
39502;SDS011;26970;49.900;10.774;2024-03-02T02:06:19;39.03;;;18.00;;
39502;SDS011;26970;49.900;10.774;2024-03-02T02:08:45;41.88;;;17.33;;
39502;SDS011;26970;49.900;10.774;2024-03-02T02:11:14;40.17;;;17.98;;
39502;SDS011;26970;49.900;10.774;2024-03-02T02:13:40;38.85;;;18.33;;
39502;SDS011;26970;49.900;10.774;2024-03-02T02:16:08;42.38;;;19.30;;
39502;SDS011;26970;49.900;10.774;2024-03-02T02:18:34;43.30;;;19.10;;
39502;SDS011;26970;49.900;10.774;2024-03-02T02:21:01;37.65;;;18.15;;
39502;SDS011;26970;49.900;10.774;2024-03-02T02:23:27;40.50;;;18.38;;
39502;SDS011;26970;49.900;10.774;2024-03-02T02:25:52;39.10;;;19.00;;
39502;SDS011;26970;49.900;10.774;2024-03-02T02:28:18;37.47;;;18.38;;
39502;SDS011;26970;49.900;10.774;2024-03-02T02:30:43;41.80;;;19.02;;
39502;SDS011;26970;49.900;10.774;2024-03-02T02:33:09;34.85;;;17.63;;
39502;SDS011;26970;49.900;10.774;2024-03-02T02:35:34;37.63;;;18.45;;
39502;SDS011;26970;49.900;10.774;2024-03-02T02:38:00;38.90;;;17.67;;
39502;SDS011;26970;49.900;10.774;2024-03-02T02:40:27;37.25;;;18.83;;
39502;SDS011;26970;49.900;10.774;2024-03-02T02:42:55;40.22;;;18.08;;
39502;SDS011;26970;49.900;10.774;2024-03-02T02:45:21;41.30;;;20.10;;
39502;SDS011;26970;49.900;10.774;2024-03-02T02:47:47;38.20;;;18.90;;
39502;SDS011;26970;49.900;10.774;2024-03-02T02:50:13;50.92;;;20.50;;
39502;SDS011;26970;49.900;10.774;2024-03-02T02:52:39;41.13;;;18.35;;
39502;SDS011;26970;49.900;10.774;2024-03-02T02:55:12;42.90;;;18.42;;
39502;SDS011;26970;49.900;10.774;2024-03-02T02:57:39;39.50;;;18.77;;
39502;SDS011;26970;49.900;10.774;2024-03-02T03:00:07;38.63;;;19.08;;
39502;SDS011;26970;49.900;10.774;2024-03-02T03:02:41;38.60;;;18.48;;
39502;SDS011;26970;49.900;10.774;2024-03-02T03:05:07;39.97;;;18.17;;
39502;SDS011;26970;49.900;10.774;2024-03-02T03:07:34;45.53;;;19.80;;
39502;SDS011;26970;49.900;10.774;2024-03-02T03:10:00;40.88;;;18.23;;
39502;SDS011;26970;49.900;10.774;2024-03-02T03:12:26;42.55;;;18.88;;
39502;SDS011;26970;49.900;10.774;2024-03-02T03:14:51;36.22;;;17.55;;
39502;SDS011;26970;49.900;10.774;2024-03-02T03:17:17;42.45;;;18.80;;
39502;SDS011;26970;49.900;10.774;2024-03-02T03:19:43;46.83;;;19.58;;
39502;SDS011;26970;49.900;10.774;2024-03-02T03:22:08;41.67;;;19.10;;
39502;SDS011;26970;49.900;10.774;2024-03-02T03:24:34;42.17;;;17.40;;
39502;SDS011;26970;49.900;10.774;2024-03-02T03:27:00;40.78;;;19.58;;
39502;SDS011;26970;49.900;10.774;2024-03-02T03:29:26;40.33;;;19.17;;
39502;SDS011;26970;49.900;10.774;2024-03-02T03:31:51;47.35;;;19.65;;
39502;SDS011;26970;49.900;10.774;2024-03-02T03:34:17;41.58;;;18.85;;
39502;SDS011;26970;49.900;10.774;2024-03-02T03:36:42;46.08;;;19.75;;
39502;SDS011;26970;49.900;10.774;2024-03-02T03:39:08;42.65;;;19.20;;
39502;SDS011;26970;49.900;10.774;2024-03-02T03:41:34;42.90;;;19.52;;
39502;SDS011;26970;49.900;10.774;2024-03-02T03:43:59;50.83;;;20.40;;
39502;SDS011;26970;49.900;10.774;2024-03-02T03:46:25;41.35;;;18.98;;
39502;SDS011;26970;49.900;10.774;2024-03-02T03:48:50;46.15;;;18.40;;
39502;SDS011;26970;49.900;10.774;2024-03-02T03:51:16;44.60;;;18.73;;
39502;SDS011;26970;49.900;10.774;2024-03-02T03:53:41;44.25;;;19.48;;
39502;SDS011;26970;49.900;10.774;2024-03-02T03:56:07;44.88;;;20.02;;
39502;SDS011;26970;49.900;10.774;2024-03-02T03:58:32;41.60;;;19.30;;
39502;SDS011;26970;49.900;10.774;2024-03-02T04:00:58;43.55;;;18.58;;
39502;SDS011;26970;49.900;10.774;2024-03-02T04:03:23;44.05;;;19.98;;
39502;SDS011;26970;49.900;10.774;2024-03-02T04:05:49;45.13;;;20.05;;
39502;SDS011;26970;49.900;10.774;2024-03-02T04:08:15;46.85;;;20.95;;
39502;SDS011;26970;49.900;10.774;2024-03-02T04:10:40;41.92;;;18.80;;
39502;SDS011;26970;49.900;10.774;2024-03-02T04:13:07;41.63;;;20.33;;
39502;SDS011;26970;49.900;10.774;2024-03-02T04:15:32;41.08;;;19.27;;
39502;SDS011;26970;49.900;10.774;2024-03-02T04:17:58;45.17;;;20.30;;
39502;SDS011;26970;49.900;10.774;2024-03-02T04:20:23;45.17;;;19.20;;
39502;SDS011;26970;49.900;10.774;2024-03-02T04:22:50;41.70;;;18.23;;
39502;SDS011;26970;49.900;10.774;2024-03-02T04:25:15;43.58;;;19.20;;
39502;SDS011;26970;49.900;10.774;2024-03-02T04:27:41;45.45;;;20.27;;
39502;SDS011;26970;49.900;10.774;2024-03-02T04:30:06;47.22;;;19.63;;
39502;SDS011;26970;49.900;10.774;2024-03-02T04:32:32;43.63;;;19.13;;
39502;SDS011;26970;49.900;10.774;2024-03-02T04:34:58;54.20;;;20.13;;
39502;SDS011;26970;49.900;10.774;2024-03-02T04:37:23;43.55;;;20.08;;
39502;SDS011;26970;49.900;10.774;2024-03-02T04:39:49;49.08;;;19.13;;
39502;SDS011;26970;49.900;10.774;2024-03-02T04:42:14;52.15;;;20.17;;
39502;SDS011;26970;49.900;10.774;2024-03-02T04:44:40;46.90;;;19.05;;
39502;SDS011;26970;49.900;10.774;2024-03-02T04:47:06;45.97;;;20.48;;
39502;SDS011;26970;49.900;10.774;2024-03-02T04:49:31;54.35;;;21.63;;
39502;SDS011;26970;49.900;10.774;2024-03-02T04:51:57;53.58;;;21.15;;
39502;SDS011;26970;49.900;10.774;2024-03-02T04:54:22;52.13;;;21.00;;
39502;SDS011;26970;49.900;10.774;2024-03-02T04:56:48;48.60;;;20.95;;
39502;SDS011;26970;49.900;10.774;2024-03-02T04:59:17;45.72;;;19.23;;
39502;SDS011;26970;49.900;10.774;2024-03-02T05:01:43;51.85;;;21.70;;
39502;SDS011;26970;49.900;10.774;2024-03-02T05:04:09;47.10;;;21.63;;
39502;SDS011;26970;49.900;10.774;2024-03-02T05:06:38;49.72;;;19.83;;
39502;SDS011;26970;49.900;10.774;2024-03-02T05:09:05;46.55;;;21.40;;
39502;SDS011;26970;49.900;10.774;2024-03-02T05:11:31;53.08;;;20.85;;
39502;SDS011;26970;49.900;10.774;2024-03-02T05:14:02;48.03;;;21.50;;
39502;SDS011;26970;49.900;10.774;2024-03-02T05:16:28;40.90;;;19.27;;
39502;SDS011;26970;49.900;10.774;2024-03-02T05:18:54;48.97;;;20.23;;
39502;SDS011;26970;49.900;10.774;2024-03-02T05:21:20;50.08;;;21.35;;
39502;SDS011;26970;49.900;10.774;2024-03-02T05:23:46;47.95;;;21.00;;
39502;SDS011;26970;49.900;10.774;2024-03-02T05:26:11;54.65;;;22.45;;
39502;SDS011;26970;49.900;10.774;2024-03-02T05:28:38;46.15;;;20.17;;
39502;SDS011;26970;49.900;10.774;2024-03-02T05:31:04;46.25;;;21.23;;
39502;SDS011;26970;49.900;10.774;2024-03-02T05:33:30;47.85;;;20.08;;
39502;SDS011;26970;49.900;10.774;2024-03-02T05:35:56;49.65;;;21.13;;
39502;SDS011;26970;49.900;10.774;2024-03-02T05:38:22;45.85;;;19.73;;
39502;SDS011;26970;49.900;10.774;2024-03-02T05:40:48;55.63;;;19.40;;
39502;SDS011;26970;49.900;10.774;2024-03-02T05:43:13;54.13;;;20.83;;
39502;SDS011;26970;49.900;10.774;2024-03-02T05:45:39;43.10;;;20.13;;
39502;SDS011;26970;49.900;10.774;2024-03-02T05:48:06;49.33;;;19.52;;
39502;SDS011;26970;49.900;10.774;2024-03-02T05:50:32;57.88;;;20.67;;
39502;SDS011;26970;49.900;10.774;2024-03-02T05:52:58;52.30;;;21.13;;
39502;SDS011;26970;49.900;10.774;2024-03-02T05:55:24;44.42;;;19.92;;
39502;SDS011;26970;49.900;10.774;2024-03-02T05:57:49;51.08;;;19.73;;
39502;SDS011;26970;49.900;10.774;2024-03-02T06:00:42;51.30;;;20.92;;
39502;SDS011;26970;49.900;10.774;2024-03-02T06:03:08;52.45;;;20.25;;
39502;SDS011;26970;49.900;10.774;2024-03-02T06:05:34;47.95;;;20.55;;
39502;SDS011;26970;49.900;10.774;2024-03-02T06:08:00;51.28;;;19.73;;
39502;SDS011;26970;49.900;10.774;2024-03-02T06:10:25;43.67;;;20.88;;
39502;SDS011;26970;49.900;10.774;2024-03-02T06:12:51;50.55;;;20.08;;
39502;SDS011;26970;49.900;10.774;2024-03-02T06:15:16;44.88;;;21.10;;
39502;SDS011;26970;49.900;10.774;2024-03-02T06:17:42;45.40;;;18.67;;
39502;SDS011;26970;49.900;10.774;2024-03-02T06:20:07;43.05;;;20.20;;
39502;SDS011;26970;49.900;10.774;2024-03-02T06:22:34;50.20;;;20.35;;
39502;SDS011;26970;49.900;10.774;2024-03-02T06:25:00;45.45;;;19.67;;
39502;SDS011;26970;49.900;10.774;2024-03-02T06:27:25;47.92;;;19.73;;
39502;SDS011;26970;49.900;10.774;2024-03-02T06:29:51;45.50;;;19.38;;
39502;SDS011;26970;49.900;10.774;2024-03-02T06:32:16;49.22;;;19.42;;
39502;SDS011;26970;49.900;10.774;2024-03-02T06:34:42;47.55;;;20.73;;
39502;SDS011;26970;49.900;10.774;2024-03-02T06:37:07;48.85;;;20.42;;
39502;SDS011;26970;49.900;10.774;2024-03-02T06:39:33;40.33;;;18.50;;
39502;SDS011;26970;49.900;10.774;2024-03-02T06:41:59;41.17;;;18.45;;
39502;SDS011;26970;49.900;10.774;2024-03-02T06:44:25;47.67;;;18.73;;
39502;SDS011;26970;49.900;10.774;2024-03-02T06:46:50;46.10;;;18.83;;
39502;SDS011;26970;49.900;10.774;2024-03-02T06:49:16;42.95;;;19.15;;
39502;SDS011;26970;49.900;10.774;2024-03-02T06:51:43;45.63;;;18.67;;
39502;SDS011;26970;49.900;10.774;2024-03-02T06:54:09;45.53;;;19.42;;
39502;SDS011;26970;49.900;10.774;2024-03-02T06:56:34;36.45;;;19.58;;
39502;SDS011;26970;49.900;10.774;2024-03-02T06:59:00;40.38;;;16.50;;
39502;SDS011;26970;49.900;10.774;2024-03-02T07:01:25;42.28;;;17.70;;
39502;SDS011;26970;49.900;10.774;2024-03-02T07:03:51;39.20;;;16.50;;
39502;SDS011;26970;49.900;10.774;2024-03-02T07:06:17;38.25;;;16.58;;
39502;SDS011;26970;49.900;10.774;2024-03-02T07:08:42;35.00;;;16.17;;
39502;SDS011;26970;49.900;10.774;2024-03-02T07:11:08;49.03;;;18.83;;
39502;SDS011;26970;49.900;10.774;2024-03-02T07:13:34;37.53;;;16.58;;
39502;SDS011;26970;49.900;10.774;2024-03-02T07:16:00;37.53;;;16.42;;
39502;SDS011;26970;49.900;10.774;2024-03-02T07:18:29;38.33;;;16.50;;
39502;SDS011;26970;49.900;10.774;2024-03-02T07:20:55;35.08;;;15.43;;
39502;SDS011;26970;49.900;10.774;2024-03-02T07:23:23;35.25;;;16.75;;
39502;SDS011;26970;49.900;10.774;2024-03-02T07:25:52;38.95;;;16.95;;
39502;SDS011;26970;49.900;10.774;2024-03-02T07:28:19;35.45;;;16.95;;
39502;SDS011;26970;49.900;10.774;2024-03-02T07:30:45;35.03;;;16.02;;
39502;SDS011;26970;49.900;10.774;2024-03-02T07:33:11;37.88;;;16.45;;
39502;SDS011;26970;49.900;10.774;2024-03-02T07:35:36;34.20;;;15.63;;
39502;SDS011;26970;49.900;10.774;2024-03-02T07:38:02;36.10;;;16.08;;
39502;SDS011;26970;49.900;10.774;2024-03-02T07:40:28;35.80;;;15.57;;
39502;SDS011;26970;49.900;10.774;2024-03-02T07:42:54;37.15;;;16.10;;
39502;SDS011;26970;49.900;10.774;2024-03-02T07:45:20;36.03;;;15.05;;
39502;SDS011;26970;49.900;10.774;2024-03-02T07:47:45;44.30;;;19.45;;
39502;SDS011;26970;49.900;10.774;2024-03-02T07:50:11;45.28;;;18.67;;
39502;SDS011;26970;49.900;10.774;2024-03-02T07:52:37;48.13;;;22.25;;
39502;SDS011;26970;49.900;10.774;2024-03-02T07:55:02;50.70;;;23.30;;
39502;SDS011;26970;49.900;10.774;2024-03-02T07:57:28;36.70;;;19.92;;
39502;SDS011;26970;49.900;10.774;2024-03-02T07:59:54;33.17;;;15.32;;
39502;SDS011;26970;49.900;10.774;2024-03-02T08:02:19;29.83;;;15.20;;
39502;SDS011;26970;49.900;10.774;2024-03-02T08:04:45;33.55;;;15.05;;
39502;SDS011;26970;49.900;10.774;2024-03-02T08:07:11;27.38;;;13.00;;
39502;SDS011;26970;49.900;10.774;2024-03-02T08:09:37;29.67;;;13.82;;
39502;SDS011;26970;49.900;10.774;2024-03-02T08:12:02;30.00;;;13.23;;
39502;SDS011;26970;49.900;10.774;2024-03-02T08:14:28;29.63;;;13.05;;
39502;SDS011;26970;49.900;10.774;2024-03-02T08:16:54;26.58;;;13.80;;
39502;SDS011;26970;49.900;10.774;2024-03-02T08:19:19;25.02;;;13.50;;
39502;SDS011;26970;49.900;10.774;2024-03-02T08:21:45;24.60;;;12.90;;
39502;SDS011;26970;49.900;10.774;2024-03-02T08:24:10;24.88;;;13.82;;
39502;SDS011;26970;49.900;10.774;2024-03-02T08:26:36;24.98;;;13.82;;
39502;SDS011;26970;49.900;10.774;2024-03-02T08:29:02;21.25;;;11.02;;
39502;SDS011;26970;49.900;10.774;2024-03-02T08:31:28;23.48;;;11.88;;
39502;SDS011;26970;49.900;10.774;2024-03-02T08:33:54;23.45;;;11.48;;
39502;SDS011;26970;49.900;10.774;2024-03-02T08:36:20;22.67;;;10.98;;
39502;SDS011;26970;49.900;10.774;2024-03-02T08:38:46;19.80;;;10.18;;
39502;SDS011;26970;49.900;10.774;2024-03-02T08:41:13;21.45;;;11.05;;
39502;SDS011;26970;49.900;10.774;2024-03-02T08:43:40;18.85;;;10.55;;
39502;SDS011;26970;49.900;10.774;2024-03-02T08:46:07;18.92;;;10.32;;
39502;SDS011;26970;49.900;10.774;2024-03-02T08:48:32;17.00;;;9.15;;
39502;SDS011;26970;49.900;10.774;2024-03-02T08:50:58;19.88;;;9.18;;
39502;SDS011;26970;49.900;10.774;2024-03-02T08:53:23;17.75;;;9.15;;
39502;SDS011;26970;49.900;10.774;2024-03-02T08:55:49;19.60;;;10.02;;
39502;SDS011;26970;49.900;10.774;2024-03-02T08:58:15;21.42;;;10.52;;
39502;SDS011;26970;49.900;10.774;2024-03-02T09:00:40;21.95;;;10.20;;
39502;SDS011;26970;49.900;10.774;2024-03-02T09:03:07;18.70;;;9.70;;
39502;SDS011;26970;49.900;10.774;2024-03-02T09:05:32;16.45;;;9.48;;
39502;SDS011;26970;49.900;10.774;2024-03-02T09:07:58;17.13;;;8.68;;
39502;SDS011;26970;49.900;10.774;2024-03-02T09:10:23;17.13;;;8.98;;
39502;SDS011;26970;49.900;10.774;2024-03-02T09:12:49;15.65;;;8.45;;
39502;SDS011;26970;49.900;10.774;2024-03-02T09:15:15;16.27;;;8.00;;
39502;SDS011;26970;49.900;10.774;2024-03-02T09:17:41;16.23;;;8.00;;
39502;SDS011;26970;49.900;10.774;2024-03-02T09:20:06;17.60;;;8.05;;
39502;SDS011;26970;49.900;10.774;2024-03-02T09:22:32;14.98;;;7.70;;
39502;SDS011;26970;49.900;10.774;2024-03-02T09:24:58;15.27;;;8.18;;
39502;SDS011;26970;49.900;10.774;2024-03-02T09:27:23;17.08;;;9.02;;
39502;SDS011;26970;49.900;10.774;2024-03-02T09:29:49;12.70;;;7.55;;
39502;SDS011;26970;49.900;10.774;2024-03-02T09:32:14;14.35;;;7.53;;
39502;SDS011;26970;49.900;10.774;2024-03-02T09:34:40;15.73;;;9.20;;
39502;SDS011;26970;49.900;10.774;2024-03-02T09:37:06;16.20;;;8.38;;
39502;SDS011;26970;49.900;10.774;2024-03-02T09:39:32;16.70;;;8.10;;
39502;SDS011;26970;49.900;10.774;2024-03-02T09:41:58;14.35;;;7.25;;
39502;SDS011;26970;49.900;10.774;2024-03-02T09:44:24;14.95;;;7.78;;
39502;SDS011;26970;49.900;10.774;2024-03-02T09:46:50;15.40;;;8.50;;
39502;SDS011;26970;49.900;10.774;2024-03-02T09:49:16;16.17;;;8.15;;
39502;SDS011;26970;49.900;10.774;2024-03-02T09:51:48;15.05;;;8.18;;
39502;SDS011;26970;49.900;10.774;2024-03-02T09:54:17;15.68;;;8.25;;
39502;SDS011;26970;49.900;10.774;2024-03-02T09:56:42;17.73;;;8.85;;
39502;SDS011;26970;49.900;10.774;2024-03-02T09:59:09;14.75;;;7.90;;
39502;SDS011;26970;49.900;10.774;2024-03-02T10:01:34;16.02;;;8.45;;
39502;SDS011;26970;49.900;10.774;2024-03-02T10:04:00;25.30;;;13.60;;
39502;SDS011;26970;49.900;10.774;2024-03-02T10:06:27;12.85;;;8.02;;
39502;SDS011;26970;49.900;10.774;2024-03-02T10:08:54;18.45;;;10.02;;
39502;SDS011;26970;49.900;10.774;2024-03-02T10:14:09;15.43;;;8.77;;
39502;SDS011;26970;49.900;10.774;2024-03-02T10:16:41;13.48;;;7.53;;
39502;SDS011;26970;49.900;10.774;2024-03-02T10:19:18;13.88;;;7.25;;
39502;SDS011;26970;49.900;10.774;2024-03-02T10:21:48;15.60;;;8.15;;
39502;SDS011;26970;49.900;10.774;2024-03-02T10:24:15;15.38;;;8.07;;
39502;SDS011;26970;49.900;10.774;2024-03-02T10:26:41;13.70;;;7.38;;
39502;SDS011;26970;49.900;10.774;2024-03-02T10:29:08;14.70;;;9.05;;
39502;SDS011;26970;49.900;10.774;2024-03-02T10:31:38;21.13;;;11.60;;
39502;SDS011;26970;49.900;10.774;2024-03-02T10:34:04;16.60;;;8.73;;
39502;SDS011;26970;49.900;10.774;2024-03-02T10:36:31;13.35;;;7.00;;
39502;SDS011;26970;49.900;10.774;2024-03-02T10:38:59;13.93;;;7.38;;
39502;SDS011;26970;49.900;10.774;2024-03-02T10:41:27;12.57;;;7.40;;
39502;SDS011;26970;49.900;10.774;2024-03-02T10:43:53;14.73;;;7.25;;
39502;SDS011;26970;49.900;10.774;2024-03-02T10:46:25;15.13;;;6.93;;
39502;SDS011;26970;49.900;10.774;2024-03-02T10:51:26;14.93;;;6.28;;
39502;SDS011;26970;49.900;10.774;2024-03-02T10:53:53;11.18;;;6.18;;
39502;SDS011;26970;49.900;10.774;2024-03-02T10:56:26;13.18;;;7.13;;
39502;SDS011;26970;49.900;10.774;2024-03-02T10:58:55;12.63;;;7.38;;
39502;SDS011;26970;49.900;10.774;2024-03-02T11:01:31;13.63;;;7.40;;
39502;SDS011;26970;49.900;10.774;2024-03-02T11:03:58;8.98;;;5.85;;
39502;SDS011;26970;49.900;10.774;2024-03-02T11:06:25;14.77;;;7.40;;
39502;SDS011;26970;49.900;10.774;2024-03-02T11:08:53;13.93;;;6.75;;
39502;SDS011;26970;49.900;10.774;2024-03-02T11:11:26;13.15;;;6.90;;
39502;SDS011;26970;49.900;10.774;2024-03-02T11:13:54;11.30;;;6.13;;
39502;SDS011;26970;49.900;10.774;2024-03-02T11:16:33;12.48;;;6.20;;
39502;SDS011;26970;49.900;10.774;2024-03-02T11:19:04;12.88;;;6.28;;
39502;SDS011;26970;49.900;10.774;2024-03-02T11:21:32;10.13;;;5.25;;
39502;SDS011;26970;49.900;10.774;2024-03-02T11:24:27;10.95;;;6.25;;
39502;SDS011;26970;49.900;10.774;2024-03-02T11:26:46;13.20;;;5.88;;
39502;SDS011;26970;49.900;10.774;2024-03-02T11:32:03;15.25;;;7.57;;
39502;SDS011;26970;49.900;10.774;2024-03-02T11:37:00;12.02;;;5.57;;
39502;SDS011;26970;49.900;10.774;2024-03-02T11:39:27;11.80;;;6.45;;
39502;SDS011;26970;49.900;10.774;2024-03-02T11:41:53;10.52;;;5.65;;
39502;SDS011;26970;49.900;10.774;2024-03-02T11:44:20;10.95;;;4.55;;
39502;SDS011;26970;49.900;10.774;2024-03-02T11:46:46;7.97;;;5.00;;
39502;SDS011;26970;49.900;10.774;2024-03-02T11:49:37;9.93;;;4.18;;
39502;SDS011;26970;49.900;10.774;2024-03-02T11:52:09;8.60;;;4.72;;
39502;SDS011;26970;49.900;10.774;2024-03-02T11:54:39;9.55;;;4.97;;
39502;SDS011;26970;49.900;10.774;2024-03-02T11:57:12;10.75;;;4.72;;
39502;SDS011;26970;49.900;10.774;2024-03-02T11:59:41;8.32;;;4.88;;
39502;SDS011;26970;49.900;10.774;2024-03-02T12:02:13;8.27;;;4.82;;
39502;SDS011;26970;49.900;10.774;2024-03-02T12:04:41;8.68;;;4.72;;
39502;SDS011;26970;49.900;10.774;2024-03-02T12:07:08;10.30;;;4.90;;
39502;SDS011;26970;49.900;10.774;2024-03-02T12:09:34;9.38;;;4.65;;
39502;SDS011;26970;49.900;10.774;2024-03-02T12:12:03;9.10;;;5.20;;
39502;SDS011;26970;49.900;10.774;2024-03-02T12:14:33;9.57;;;5.15;;
39502;SDS011;26970;49.900;10.774;2024-03-02T12:17:00;8.85;;;4.72;;
39502;SDS011;26970;49.900;10.774;2024-03-02T12:19:26;10.80;;;5.18;;
39502;SDS011;26970;49.900;10.774;2024-03-02T12:21:52;9.48;;;4.53;;
39502;SDS011;26970;49.900;10.774;2024-03-02T12:24:19;8.35;;;4.78;;
39502;SDS011;26970;49.900;10.774;2024-03-02T12:26:46;8.52;;;4.47;;
39502;SDS011;26970;49.900;10.774;2024-03-02T12:29:13;7.88;;;3.92;;
39502;SDS011;26970;49.900;10.774;2024-03-02T12:31:40;8.45;;;4.18;;
39502;SDS011;26970;49.900;10.774;2024-03-02T12:34:06;8.95;;;4.22;;
39502;SDS011;26970;49.900;10.774;2024-03-02T12:36:37;5.75;;;3.55;;
39502;SDS011;26970;49.900;10.774;2024-03-02T12:39:03;7.75;;;3.75;;
39502;SDS011;26970;49.900;10.774;2024-03-02T12:41:29;6.93;;;3.60;;
39502;SDS011;26970;49.900;10.774;2024-03-02T12:43:54;6.63;;;3.90;;
39502;SDS011;26970;49.900;10.774;2024-03-02T12:46:20;5.78;;;3.47;;
39502;SDS011;26970;49.900;10.774;2024-03-02T12:48:46;5.88;;;3.38;;
39502;SDS011;26970;49.900;10.774;2024-03-02T12:51:11;6.70;;;3.17;;
39502;SDS011;26970;49.900;10.774;2024-03-02T12:53:37;6.10;;;3.47;;
39502;SDS011;26970;49.900;10.774;2024-03-02T12:56:02;5.72;;;3.78;;
39502;SDS011;26970;49.900;10.774;2024-03-02T12:58:29;7.68;;;3.55;;
39502;SDS011;26970;49.900;10.774;2024-03-02T13:01:05;5.53;;;3.10;;
39502;SDS011;26970;49.900;10.774;2024-03-02T13:03:34;6.55;;;3.92;;
39502;SDS011;26970;49.900;10.774;2024-03-02T13:06:01;6.30;;;3.83;;
39502;SDS011;26970;49.900;10.774;2024-03-02T13:08:27;6.10;;;3.38;;
39502;SDS011;26970;49.900;10.774;2024-03-02T13:10:52;6.88;;;4.05;;
39502;SDS011;26970;49.900;10.774;2024-03-02T13:13:18;7.22;;;3.97;;
39502;SDS011;26970;49.900;10.774;2024-03-02T13:15:43;6.47;;;3.63;;
39502;SDS011;26970;49.900;10.774;2024-03-02T13:18:10;6.13;;;3.50;;
39502;SDS011;26970;49.900;10.774;2024-03-02T13:20:36;8.23;;;3.95;;
39502;SDS011;26970;49.900;10.774;2024-03-02T13:23:02;6.63;;;3.92;;
39502;SDS011;26970;49.900;10.774;2024-03-02T13:25:27;6.75;;;3.63;;
39502;SDS011;26970;49.900;10.774;2024-03-02T13:27:53;5.68;;;3.40;;
39502;SDS011;26970;49.900;10.774;2024-03-02T13:30:19;5.13;;;2.85;;
39502;SDS011;26970;49.900;10.774;2024-03-02T13:32:44;6.57;;;3.70;;
39502;SDS011;26970;49.900;10.774;2024-03-02T13:35:10;8.93;;;3.70;;
39502;SDS011;26970;49.900;10.774;2024-03-02T13:37:36;6.57;;;3.67;;
39502;SDS011;26970;49.900;10.774;2024-03-02T13:40:01;6.53;;;3.47;;
39502;SDS011;26970;49.900;10.774;2024-03-02T13:42:29;6.65;;;3.30;;
39502;SDS011;26970;49.900;10.774;2024-03-02T13:44:54;6.38;;;3.30;;
39502;SDS011;26970;49.900;10.774;2024-03-02T13:47:20;6.72;;;3.53;;
39502;SDS011;26970;49.900;10.774;2024-03-02T13:49:46;5.60;;;3.40;;
39502;SDS011;26970;49.900;10.774;2024-03-02T13:52:13;6.13;;;3.65;;
39502;SDS011;26970;49.900;10.774;2024-03-02T13:54:42;8.18;;;4.55;;
39502;SDS011;26970;49.900;10.774;2024-03-02T13:57:08;8.07;;;3.90;;
39502;SDS011;26970;49.900;10.774;2024-03-02T13:59:35;6.30;;;3.90;;
39502;SDS011;26970;49.900;10.774;2024-03-02T14:02:01;6.72;;;4.00;;
39502;SDS011;26970;49.900;10.774;2024-03-02T14:04:29;6.63;;;3.78;;
39502;SDS011;26970;49.900;10.774;2024-03-02T14:07:01;7.60;;;4.35;;
39502;SDS011;26970;49.900;10.774;2024-03-02T14:09:27;6.72;;;4.15;;
39502;SDS011;26970;49.900;10.774;2024-03-02T14:11:53;8.05;;;4.28;;
39502;SDS011;26970;49.900;10.774;2024-03-02T14:14:20;8.68;;;5.07;;
39502;SDS011;26970;49.900;10.774;2024-03-02T14:16:46;9.13;;;4.95;;
39502;SDS011;26970;49.900;10.774;2024-03-02T14:19:12;9.00;;;5.47;;
39502;SDS011;26970;49.900;10.774;2024-03-02T14:21:38;8.43;;;4.82;;
39502;SDS011;26970;49.900;10.774;2024-03-02T14:24:04;8.90;;;5.18;;